Time;durP1;ratioP1;P1;durP2;ratioP2;P2;SDS_P1;SDS_P2;PMS_P1;PMS_P2;Temp;Humidity;BMP_temperature;BMP_pressure;BME280_temperature;BME280_humidity;BME280_pressure;Samples;Min_cycle;Max_cycle;Signal;HPM_P1;HPM_P2
2023/03/23 00:01:20;;;;;;;7.03;3.47;;;;;;;15.86;65.24;100165.59;5101743;28;20403;-41
2023/03/23 00:03:47;;;;;;;6.72;3.15;;;;;;;15.59;65.76;100180.97;5105615;28;20558;-40
2023/03/23 00:06:17;;;;;;;7.15;3.00;;;;;;;15.38;66.03;100176.91;5100993;28;20031;-39
2023/03/23 00:08:45;;;;;;;6.15;3.13;;;;;;;15.85;65.08;100171.75;5104909;28;20031;-42
2023/03/23 00:11:15;;;;;;;5.68;2.78;;;;;;;15.76;65.27;100183.28;5099210;28;20032;-40
2023/03/23 00:13:43;;;;;;;5.45;2.80;;;;;;;15.69;65.58;100181.66;5102565;28;20040;-40
2023/03/23 00:16:16;;;;;;;5.80;2.83;;;;;;;15.46;65.70;100162.78;5081228;28;20065;-42
2023/03/23 00:18:45;;;;;;;5.88;2.90;;;;;;;15.57;65.16;100167.00;5103227;28;20028;-42
2023/03/23 00:21:11;;;;;;;5.80;2.80;;;;;;;15.62;65.65;100164.25;5102919;28;20023;-50
2023/03/23 00:23:38;;;;;;;6.05;2.70;;;;;;;15.67;65.19;100162.44;5101411;28;20043;-40
2023/03/23 00:26:03;;;;;;;5.10;2.75;;;;;;;15.91;64.62;100161.09;5102498;28;20051;-41
2023/03/23 00:28:29;;;;;;;9.88;2.58;;;;;;;15.94;64.46;100150.50;5099073;28;20055;-43
2023/03/23 00:30:59;;;;;;;5.45;2.60;;;;;;;15.86;64.51;100158.53;5102858;28;20032;-42
2023/03/23 00:33:28;;;;;;;6.28;2.50;;;;;;;15.78;64.62;100140.31;5099346;28;20325;-41
2023/03/23 00:35:54;;;;;;;5.15;2.38;;;;;;;15.89;64.24;100142.72;5103871;28;20133;-42
2023/03/23 00:38:22;;;;;;;4.95;2.22;;;;;;;15.32;66.25;100128.88;5098742;28;20028;-43
2023/03/23 00:40:48;;;;;;;7.38;2.60;;;;;;;15.49;65.58;100126.81;5104906;28;20527;-42
2023/03/23 00:43:15;;;;;;;4.75;2.35;;;;;;;15.75;64.14;100129.84;5080958;28;20031;-43
2023/03/23 00:45:40;;;;;;;4.30;2.55;;;;;;;15.80;64.27;100132.38;5104858;28;20073;-41
2023/03/23 00:48:06;;;;;;;5.53;2.40;;;;;;;15.51;65.31;100137.28;5103695;28;20035;-43
2023/03/23 00:50:31;;;;;;;5.38;2.60;;;;;;;15.46;65.20;100134.75;5101685;28;20032;-40
2023/03/23 00:52:57;;;;;;;5.10;2.50;;;;;;;15.39;65.54;100133.13;5105255;28;20118;-42
2023/03/23 00:55:24;;;;;;;6.85;2.60;;;;;;;15.57;65.17;100129.34;5101932;28;20035;-41
2023/03/23 00:57:51;;;;;;;5.97;2.40;;;;;;;15.38;65.16;100134.91;5105756;28;20087;-44
2023/03/23 01:00:16;;;;;;;5.72;2.40;;;;;;;15.31;65.12;100121.88;5101264;28;20027;-41
2023/03/23 01:02:44;;;;;;;6.10;2.40;;;;;;;15.52;65.13;100131.16;5104171;28;20038;-40
2023/03/23 01:05:10;;;;;;;4.07;2.30;;;;;;;15.81;64.32;100135.00;5104709;28;22558;-40
2023/03/23 01:07:36;;;;;;;5.10;2.30;;;;;;;15.62;64.35;100114.34;5101051;28;20118;-43
2023/03/23 01:10:02;;;;;;;6.38;2.28;;;;;;;15.68;64.53;100119.47;5104176;28;20502;-40
2023/03/23 01:12:27;;;;;;;5.32;2.47;;;;;;;15.61;64.68;100107.38;5100379;28;21202;-41
2023/03/23 01:14:53;;;;;;;4.00;2.30;;;;;;;15.20;65.77;100098.47;5102765;28;20401;-41
2023/03/23 01:17:19;;;;;;;5.45;2.30;;;;;;;15.32;65.42;100111.38;5100381;28;20024;-40
2023/03/23 01:19:45;;;;;;;5.50;2.30;;;;;;;15.57;64.75;100096.06;5104513;28;20035;-41
2023/03/23 01:22:10;;;;;;;4.82;2.40;;;;;;;15.72;64.20;100097.53;5103304;28;20036;-40
2023/03/23 01:24:35;;;;;;;5.18;2.45;;;;;;;15.34;65.35;100103.47;5097928;28;20024;-44
2023/03/23 01:27:06;;;;;;;4.88;2.30;;;;;;;15.47;64.87;100091.84;5102869;28;20447;-41
2023/03/23 01:29:35;;;;;;;4.40;2.20;;;;;;;15.46;64.94;100091.88;5098837;28;20035;-40
2023/03/23 01:32:00;;;;;;;4.95;2.10;;;;;;;15.06;65.92;100084.72;5101805;28;20145;-42
2023/03/23 01:34:26;;;;;;;3.92;2.10;;;;;;;15.17;65.56;100081.91;5097523;28;20028;-40
2023/03/23 01:36:51;;;;;;;4.43;2.03;;;;;;;15.14;66.29;100093.31;5100939;28;20104;-40
2023/03/23 01:39:16;;;;;;;4.20;2.10;;;;;;;15.53;64.78;100085.63;5097471;28;20118;-42
2023/03/23 01:41:42;;;;;;;4.47;2.00;;;;;;;15.81;63.93;100094.69;5102240;28;20110;-42
2023/03/23 01:44:30;;;;;;;5.65;2.10;;;;;;;15.49;64.83;100092.66;5100771;28;20359;-41
2023/03/23 01:46:55;;;;;;;5.53;2.00;;;;;;;15.56;65.03;100089.06;5098123;28;20020;-41
2023/03/23 01:49:52;;;;;;;5.45;2.05;;;;;;;15.14;65.56;100076.69;5100197;28;20046;-42
2023/03/23 01:52:25;;;;;;;5.82;1.95;;;;;;;15.71;64.46;100074.75;5098806;28;20044;-43
2023/03/23 01:54:52;;;;;;;5.57;1.90;;;;;;;15.89;63.58;100063.88;5099790;28;20047;-43
2023/03/23 01:57:21;;;;;;;3.78;2.10;;;;;;;15.83;64.15;100071.88;5100190;28;20118;-43
2023/03/23 01:59:51;;;;;;;4.30;2.00;;;;;;;15.43;65.36;100069.13;5102733;28;20036;-41
2023/03/23 02:02:20;;;;;;;3.38;2.10;;;;;;;15.47;65.25;100062.94;5098183;28;20074;-42
2023/03/23 02:04:45;;;;;;;4.63;2.10;;;;;;;15.02;66.17;100070.78;5101409;28;20108;-40
2023/03/23 02:07:13;;;;;;;4.75;2.15;;;;;;;15.54;65.23;100076.88;5100893;28;20078;-43
2023/03/23 02:09:39;;;;;;;5.65;2.25;;;;;;;15.73;64.51;100071.22;5097275;28;20544;-41
2023/03/23 02:12:05;;;;;;;4.68;2.00;;;;;;;15.63;65.11;100079.28;5100030;28;20023;-43
2023/03/23 02:14:31;;;;;;;5.05;2.20;;;;;;;15.09;66.99;100082.03;5096977;28;21555;-41
2023/03/23 02:17:02;;;;;;;4.43;2.08;;;;;;;15.31;66.21;100082.50;5100574;28;20034;-41
2023/03/23 02:19:33;;;;;;;3.25;2.00;;;;;;;15.71;64.78;100085.28;5096951;28;20405;-41
2023/03/23 02:22:12;;;;;;;3.70;2.13;;;;;;;15.32;66.07;100077.22;5082368;28;20394;-43
2023/03/23 02:24:40;;;;;;;4.35;2.13;;;;;;;15.32;66.12;100081.59;5097216;28;20032;-41
2023/03/23 02:27:16;;;;;;;3.60;1.98;;;;;;;15.64;65.33;100081.91;5083351;28;20040;-40
2023/03/23 02:30:04;;;;;;;4.07;2.10;;;;;;;15.31;66.15;100064.13;5079004;28;20079;-41
2023/03/23 02:32:41;;;;;;;4.28;2.13;;;;;;;15.30;65.93;100065.03;5096335;28;20126;-41
2023/03/23 02:35:12;;;;;;;4.13;2.20;;;;;;;15.14;66.53;100066.19;5100814;28;20088;-40
2023/03/23 02:38:02;;;;;;;4.45;2.22;;;;;;;15.10;66.43;100067.16;5097200;28;20047;-40
2023/03/23 02:40:33;;;;;;;5.10;1.95;;;;;;;15.03;66.35;100069.00;5085010;28;20067;-43
2023/03/23 02:43:00;;;;;;;5.32;2.10;;;;;;;15.40;65.94;100063.97;5078574;28;20114;-41
2023/03/23 02:45:28;;;;;;;4.18;2.10;;;;;;;15.43;66.00;100069.13;5097121;28;20084;-41
2023/03/23 02:47:55;;;;;;;5.80;2.00;;;;;;;15.21;66.98;100063.44;5101454;28;20032;-41
2023/03/23 02:50:24;;;;;;;4.35;2.25;;;;;;;15.43;66.80;100071.75;5100843;28;20076;-40
2023/03/23 02:52:51;;;;;;;5.13;1.98;;;;;;;15.19;67.04;100056.47;5105347;28;20095;-42
2023/03/23 02:55:19;;;;;;;3.92;1.85;;;;;;;14.88;67.75;100064.03;5101734;28;20038;-39
2023/03/23 02:57:46;;;;;;;4.45;2.10;;;;;;;14.75;68.35;100070.38;5103943;28;20036;-41
2023/03/23 03:00:14;;;;;;;4.22;1.88;;;;;;;15.37;66.72;100071.88;5101144;28;20027;-40
2023/03/23 03:02:43;;;;;;;5.32;2.10;;;;;;;14.87;67.83;100060.56;5104356;28;20042;-40
2023/03/23 03:05:35;;;;;;;7.15;2.00;;;;;;;14.71;68.35;100051.19;5100642;28;20052;-42
2023/03/23 03:08:27;;;;;;;4.63;1.83;;;;;;;15.09;68.00;100061.03;5104374;28;20241;-43
2023/03/23 03:11:02;;;;;;;8.95;2.17;;;;;;;15.14;68.03;100066.19;5100964;28;20070;-41
2023/03/23 03:13:33;;;;;;;6.35;2.15;;;;;;;14.83;69.25;100066.72;5100580;28;20032;-42
2023/03/23 03:15:59;;;;;;;4.43;2.00;;;;;;;14.59;70.35;100096.84;5104289;28;20412;-42
2023/03/23 03:18:27;;;;;;;5.15;1.90;;;;;;;15.13;69.06;100082.84;5100574;28;20027;-43
2023/03/23 03:20:59;;;;;;;4.68;1.95;;;;;;;14.69;69.96;100088.84;5104865;28;20498;-41
2023/03/23 03:23:27;;;;;;;6.30;2.35;;;;;;;14.39;72.13;100080.56;5101105;28;20035;-41
2023/03/23 03:25:57;;;;;;;4.63;2.30;;;;;;;14.25;73.60;100081.59;5105011;28;20394;-41
2023/03/23 03:28:23;;;;;;;6.07;2.20;;;;;;;14.82;72.20;100082.50;5101591;28;20504;-40
2023/03/23 03:30:55;;;;;;;3.95;2.20;;;;;;;14.33;73.71;100085.88;5107031;28;20031;-41
2023/03/23 03:33:25;;;;;;;5.40;2.25;;;;;;;14.22;73.83;100080.75;5104278;28;20035;-41
2023/03/23 03:35:53;;;;;;;6.78;2.35;;;;;;;14.14;74.62;100080.00;5108864;28;20412;-41
2023/03/23 03:38:18;;;;;;;6.38;2.20;;;;;;;14.34;73.78;100077.09;5105121;28;20032;-40
2023/03/23 03:40:44;;;;;;;4.97;2.22;;;;;;;14.18;74.26;100089.56;5108998;28;20122;-41
2023/03/23 03:43:09;;;;;;;5.82;2.20;;;;;;;14.03;74.76;100086.25;5104705;28;20040;-48
2023/03/23 03:45:35;;;;;;;3.58;1.80;;;;;;;14.20;74.40;100081.69;5107840;28;20171;-42
2023/03/23 03:48:01;;;;;;;5.72;2.10;;;;;;;14.13;74.93;100098.38;5089609;28;20035;-41
2023/03/23 03:50:27;;;;;;;5.15;2.00;;;;;;;13.77;75.70;100090.09;5104379;28;20122;-43
2023/03/23 03:52:52;;;;;;;6.15;2.00;;;;;;;14.13;74.71;100101.88;5107304;28;20059;-39
2023/03/23 03:55:17;;;;;;;6.38;2.15;;;;;;;13.97;74.88;100083.72;5102872;28;20520;-42
2023/03/23 03:57:43;;;;;;;5.75;2.15;;;;;;;14.36;74.89;100077.94;5107248;28;20045;-40
2023/03/23 04:00:14;;;;;;;6.05;2.10;;;;;;;14.32;74.91;100081.50;5101703;28;20031;-44
2023/03/23 04:02:41;;;;;;;5.15;2.00;;;;;;;14.40;74.63;100081.41;5106681;28;20500;-41
2023/03/23 04:05:08;;;;;;;8.02;2.10;;;;;;;14.07;76.21;100101.94;5104129;28;20036;-41
2023/03/23 04:07:37;;;;;;;6.03;2.22;;;;;;;13.89;77.51;100110.03;5100728;28;20031;-41
2023/03/23 04:10:05;;;;;;;7.57;2.00;;;;;;;14.14;77.31;100107.97;5106780;28;20075;-41
2023/03/23 04:12:30;;;;;;;5.10;1.98;;;;;;;13.80;78.43;100128.47;5102383;28;20035;-40
2023/03/23 04:14:56;;;;;;;5.07;2.08;;;;;;;13.91;78.45;100117.84;5104180;28;20035;-41
2023/03/23 04:17:21;;;;;;;6.25;2.35;;;;;;;14.04;77.26;100120.31;5079915;28;20081;-41
2023/03/23 04:19:47;;;;;;;7.03;2.20;;;;;;;13.72;78.10;100125.09;5103222;28;20032;-39
2023/03/23 04:22:12;;;;;;;6.70;2.00;;;;;;;13.98;77.07;100124.75;5098430;28;20031;-40
2023/03/23 04:24:37;;;;;;;5.97;2.00;;;;;;;14.13;75.98;100120.22;5102477;28;20031;-40
2023/03/23 04:27:03;;;;;;;5.75;1.92;;;;;;;14.26;75.57;100123.53;5102508;28;20375;-39
2023/03/23 04:29:28;;;;;;;6.10;2.00;;;;;;;14.21;75.04;100126.19;5099133;28;20035;-41
2023/03/23 04:31:55;;;;;;;8.68;1.90;;;;;;;14.19;74.72;100130.63;5102745;28;20100;-41
2023/03/23 04:34:21;;;;;;;7.63;1.90;;;;;;;13.78;75.52;100133.72;5098246;28;20039;-43
2023/03/23 04:36:47;;;;;;;7.65;2.05;;;;;;;14.02;74.92;100127.34;5104021;28;20027;-42
2023/03/23 04:39:13;;;;;;;11.10;2.05;;;;;;;14.00;74.66;100128.25;5101017;28;20100;-42
2023/03/23 04:41:39;;;;;;;11.82;2.00;;;;;;;13.81;74.64;100138.94;5104563;28;20035;-40
2023/03/23 04:44:05;;;;;;;9.48;2.15;;;;;;;14.21;73.81;100127.94;5102491;28;20027;-40
2023/03/23 04:46:31;;;;;;;8.73;1.98;;;;;;;14.27;72.87;100127.03;5100379;28;20027;-40
2023/03/23 04:49:01;;;;;;;7.80;1.83;;;;;;;13.63;74.50;100136.53;5087529;28;20081;-40
2023/03/23 04:51:29;;;;;;;11.00;2.05;;;;;;;13.89;74.03;100138.88;5102827;28;20103;-40
2023/03/23 04:53:55;;;;;;;7.45;1.98;;;;;;;14.09;73.56;100136.84;5104752;28;20084;-39
2023/03/23 04:56:20;;;;;;;8.35;2.00;;;;;;;14.06;73.34;100144.75;5084540;28;20032;-44
2023/03/23 04:58:46;;;;;;;8.88;1.92;;;;;;;13.99;74.23;100144.84;5107977;28;20451;-44
2023/03/23 05:01:17;;;;;;;7.30;2.20;;;;;;;13.89;74.00;100130.13;5103209;28;20061;-38
2023/03/23 05:06:11;;;;;;;9.88;2.45;;;;;;;13.73;74.19;100147.75;5077284;28;20040;-40
2023/03/23 05:08:40;;;;;;;9.18;2.40;;;;;;;13.55;74.81;100147.97;5081776;28;20039;-44
2023/03/23 05:11:06;;;;;;;10.45;2.47;;;;;;;13.63;75.20;100162.72;5082928;28;20028;-42
2023/03/23 05:13:32;;;;;;;12.35;2.60;;;;;;;13.58;75.98;100156.66;5078998;28;20043;-42
2023/03/23 05:15:58;;;;;;;9.25;2.10;;;;;;;13.67;76.36;100142.59;5103850;28;20030;-42
2023/03/23 05:18:23;;;;;;;11.68;2.38;;;;;;;13.61;76.66;100155.75;5100783;27;20027;-41
2023/03/23 05:20:52;;;;;;;12.02;2.58;;;;;;;13.49;76.93;100169.84;5106092;28;20028;-46
2023/03/23 05:23:20;;;;;;;10.40;2.40;;;;;;;13.65;76.31;100167.94;5101243;28;20165;-39
2023/03/23 05:25:53;;;;;;;10.27;2.20;;;;;;;13.70;75.79;100168.78;5102544;28;20034;-41
2023/03/23 05:28:18;;;;;;;11.35;2.50;;;;;;;13.63;75.91;100167.97;5101344;27;20035;-41
2023/03/23 05:30:44;;;;;;;14.05;2.30;;;;;;;13.82;75.71;100166.00;5106185;28;20106;-39
2023/03/23 05:33:09;;;;;;;14.10;2.50;;;;;;;13.72;75.40;100174.88;5099315;28;20039;-39
2023/03/23 05:35:34;;;;;;;9.88;2.20;;;;;;;13.84;76.36;100187.84;5101909;28;20636;-41
2023/03/23 05:38:01;;;;;;;10.25;2.17;;;;;;;13.99;74.92;100184.16;5104135;28;20038;-40
2023/03/23 05:40:27;;;;;;;11.23;2.35;;;;;;;14.02;74.68;100181.53;5101014;27;20036;-41
2023/03/23 05:42:55;;;;;;;8.70;2.22;;;;;;;13.67;75.94;100181.88;5105170;28;20030;-39
2023/03/23 05:45:21;;;;;;;10.75;2.35;;;;;;;13.47;76.34;100182.09;5108282;28;20092;-41
2023/03/23 05:47:47;;;;;;;8.60;2.20;;;;;;;13.93;74.92;100185.09;5112435;27;20032;-42
2023/03/23 05:50:12;;;;;;;11.15;2.53;;;;;;;14.35;73.71;100196.81;5100572;27;20466;-40
2023/03/23 05:52:39;;;;;;;10.50;2.40;;;;;;;14.12;74.32;100189.25;5104931;28;20062;-40
2023/03/23 05:55:06;;;;;;;10.43;2.38;;;;;;;13.99;74.88;100185.03;5107052;28;20031;-41
2023/03/23 05:57:31;;;;;;;11.90;2.55;;;;;;;13.40;76.54;100198.75;5098360;28;20042;-40
2023/03/23 05:59:57;;;;;;;12.63;2.75;;;;;;;13.78;74.51;100201.00;5102030;28;20028;-40
2023/03/23 06:02:23;;;;;;;13.00;2.22;;;;;;;14.02;74.09;100205.09;5098235;28;20038;-41
2023/03/23 06:04:49;;;;;;;15.10;2.70;;;;;;;13.61;74.77;100205.50;5102120;28;20039;-40
2023/03/23 06:07:15;;;;;;;14.63;2.63;;;;;;;13.59;74.69;100210.78;5098012;28;20036;-41
2023/03/23 06:09:41;;;;;;;11.07;2.47;;;;;;;14.22;72.48;100203.97;5101983;28;20035;-40
2023/03/23 06:12:08;;;;;;;12.63;2.70;;;;;;;14.18;72.17;100211.91;5101876;28;20036;-44
2023/03/23 06:14:33;;;;;;;13.70;2.60;;;;;;;14.06;72.93;100209.41;5098314;28;20199;-40
2023/03/23 06:16:59;;;;;;;11.73;2.25;;;;;;;14.11;72.57;100212.84;5102654;28;20055;-43
2023/03/23 06:19:26;;;;;;;33.65;22.17;;;;;;;13.93;72.60;100229.66;5096434;28;20024;-42
2023/03/23 06:21:55;;;;;;;15.07;2.90;;;;;;;13.80;72.95;100220.16;5105500;28;20119;-41
2023/03/23 06:24:21;;;;;;;21.73;6.30;;;;;;;13.96;72.65;100223.53;5103460;27;20401;-39
2023/03/23 06:26:47;;;;;;;16.40;2.88;;;;;;;13.82;71.98;100229.75;5105708;28;20023;-41
2023/03/23 06:29:13;;;;;;;12.32;2.75;;;;;;;14.26;71.05;100240.66;5103145;27;20177;-40
2023/03/23 06:31:45;;;;;;;10.68;2.75;;;;;;;14.30;71.19;100234.47;5104386;28;20560;-40
2023/03/23 06:34:11;;;;;;;11.00;2.35;;;;;;;13.91;71.63;100223.53;5102453;27;22978;-43
2023/03/23 06:36:38;;;;;;;13.40;2.35;;;;;;;14.22;70.32;100234.56;5107069;28;20032;-45
2023/03/23 06:39:06;;;;;;;16.40;2.90;;;;;;;13.86;71.44;100232.34;5106406;28;20035;-42
2023/03/23 06:41:33;;;;;;;12.27;2.33;;;;;;;13.90;70.97;100241.94;5103160;28;20024;-41
2023/03/23 06:44:00;;;;;;;11.57;2.40;;;;;;;14.20;70.02;100244.22;5096714;28;20036;-42
2023/03/23 06:46:26;;;;;;;13.75;2.47;;;;;;;13.80;70.33;100241.13;5103070;27;20485;-41
2023/03/23 06:48:51;;;;;;;15.07;2.58;;;;;;;14.13;69.67;100240.78;5105861;27;20040;-39
2023/03/23 06:51:18;;;;;;;10.23;2.60;;;;;;;13.89;69.42;100235.81;5100638;27;20031;-40
2023/03/23 06:53:44;;;;;;;13.02;2.42;;;;;;;14.14;68.84;100245.16;5104918;27;20031;-41
2023/03/23 06:56:09;;;;;;;12.55;2.70;;;;;;;14.28;69.00;100238.84;5100297;28;20036;-37
2023/03/23 06:58:35;;;;;;;13.52;2.50;;;;;;;14.00;69.18;100238.31;5106052;27;20107;-40
2023/03/23 07:01:00;;;;;;;11.05;2.30;;;;;;;14.14;68.54;100252.16;5105650;27;20098;-41
2023/03/23 07:03:27;;;;;;;13.88;2.70;;;;;;;14.18;67.87;100262.56;5100487;28;20119;-42
2023/03/23 07:05:53;;;;;;;10.63;2.38;;;;;;;14.14;68.17;100258.25;5104623;27;20028;-40
2023/03/23 07:08:18;;;;;;;10.13;2.17;;;;;;;14.49;67.33;100257.88;5101955;27;20080;-40
2023/03/23 07:10:44;;;;;;;10.23;2.25;;;;;;;13.85;68.20;100256.78;5104930;27;20024;-43
2023/03/23 07:13:10;;;;;;;12.63;2.33;;;;;;;14.12;67.58;100251.28;5105722;27;20562;-39
2023/03/23 07:15:36;;;;;;;8.27;2.00;;;;;;;14.52;66.07;100249.09;5102152;27;20023;-40
2023/03/23 07:18:02;;;;;;;12.55;2.42;;;;;;;14.31;67.00;100255.44;5105831;27;20035;-40
2023/03/23 07:20:27;;;;;;;11.07;2.30;;;;;;;14.41;66.61;100261.47;5101410;27;22325;-41
2023/03/23 07:22:54;;;;;;;11.85;2.55;;;;;;;14.41;66.40;100267.59;5106073;27;20028;-43
2023/03/23 07:25:20;;;;;;;11.75;2.15;;;;;;;14.32;67.72;100262.44;5103432;27;20113;-42
2023/03/23 07:27:46;;;;;;;14.57;2.38;;;;;;;14.37;66.66;100268.50;5106596;27;20049;-44
2023/03/23 07:30:13;;;;;;;8.73;1.83;;;;;;;14.18;67.38;100267.81;5102189;27;20030;-40
2023/03/23 07:32:38;;;;;;;10.63;2.28;;;;;;;14.56;66.36;100262.16;5105347;28;20493;-42
2023/03/23 07:35:03;;;;;;;9.48;2.17;;;;;;;14.05;67.85;100262.72;5103352;28;20034;-44
2023/03/23 07:37:29;;;;;;;10.18;2.10;;;;;;;14.40;67.00;100260.59;5101487;28;20036;-41
2023/03/23 07:39:55;;;;;;;11.05;2.22;;;;;;;14.17;67.25;100247.72;5106161;28;20548;-41
2023/03/23 07:42:20;;;;;;;7.80;1.90;;;;;;;14.29;67.89;100265.06;5104532;28;20042;-42
2023/03/23 07:44:46;;;;;;;10.70;2.00;;;;;;;14.74;66.63;100255.81;5107815;28;20477;-44
2023/03/23 07:47:11;;;;;;;12.07;2.05;;;;;;;15.28;65.33;100262.00;5102499;27;20168;-42
2023/03/23 07:49:37;;;;;;;11.80;2.33;;;;;;;15.06;65.71;100258.00;5111443;28;20062;-41
2023/03/23 07:52:02;;;;;;;10.63;2.10;;;;;;;14.64;66.41;100258.59;5112623;27;20059;-39
2023/03/23 07:54:28;;;;;;;10.00;2.10;;;;;;;14.95;65.08;100268.63;5106730;27;20044;-41
2023/03/23 07:56:53;;;;;;;11.68;2.40;;;;;;;14.81;66.31;100274.97;5104326;27;20027;-44
2023/03/23 07:59:18;;;;;;;13.95;2.20;;;;;;;14.14;67.19;100265.25;5100520;27;20031;-43
2023/03/23 08:01:44;;;;;;;13.50;2.42;;;;;;;14.79;65.58;100284.59;5103834;27;20034;-43
2023/03/23 08:04:09;;;;;;;11.43;2.60;;;;;;;15.09;65.37;100289.44;5099600;27;20055;-43
2023/03/23 08:06:35;;;;;;;12.93;2.65;;;;;;;14.98;65.12;100286.09;5103682;27;20066;-41
2023/03/23 08:09:02;;;;;;;11.88;2.10;;;;;;;15.00;65.04;100292.19;5103752;27;20493;-41
2023/03/23 08:11:28;;;;;;;11.65;2.08;;;;;;;15.52;64.61;100287.06;5099560;27;21437;-43
2023/03/23 08:13:53;;;;;;;12.55;2.53;;;;;;;14.92;65.65;100300.19;5103569;28;20550;-44
2023/03/23 08:16:19;;;;;;;10.20;2.50;;;;;;;15.11;65.17;100297.28;5102423;28;20534;-42
2023/03/23 08:18:45;;;;;;;14.25;2.28;;;;;;;15.20;64.59;100297.16;5106207;28;20030;-38
2023/03/23 08:21:11;;;;;;;13.57;2.60;;;;;;;15.30;65.06;100294.38;5102717;27;20115;-40
2023/03/23 08:23:37;;;;;;;13.13;2.67;;;;;;;15.67;64.30;100299.97;5105734;27;20130;-41
2023/03/23 08:26:07;;;;;;;8.85;2.45;;;;;;;14.51;66.69;100305.06;5105881;27;20028;-41
2023/03/23 08:28:37;;;;;;;11.85;2.42;;;;;;;14.97;65.60;100311.47;5100436;28;20051;-43
2023/03/23 08:31:11;;;;;;;9.43;2.40;;;;;;;15.66;64.33;100306.09;5103564;27;20035;-41
2023/03/23 08:33:37;;;;;;;9.35;2.33;;;;;;;15.26;64.85;100307.56;5099325;27;20513;-44
2023/03/23 08:36:03;;;;;;;9.52;2.70;;;;;;;15.07;65.62;100316.59;5103125;27;20027;-41
2023/03/23 08:38:29;;;;;;;10.73;2.33;;;;;;;15.14;65.46;100320.88;5099065;27;20503;-40
2023/03/23 08:41:04;;;;;;;9.85;2.75;;;;;;;15.27;65.93;100311.94;5103733;28;20031;-42
2023/03/23 08:43:29;;;;;;;;;;;;;;;15.13;65.12;100321.75;5099837;27;20044;-40
2023/03/23 08:45:55;;;;;;;14.25;3.17;;;;;;;15.21;64.74;100322.53;5102846;28;20374;-43
2023/03/23 08:48:22;;;;;;;12.40;3.22;;;;;;;15.18;65.36;100323.44;5099944;27;20032;-42
2023/03/23 08:50:48;;;;;;;12.60;2.40;;;;;;;14.92;65.00;100328.19;5080356;28;20581;-41
2023/03/23 08:53:13;;;;;;;12.85;2.70;;;;;;;14.74;66.15;100339.78;5077708;28;20028;-41
2023/03/23 08:55:39;;;;;;;17.02;3.13;;;;;;;14.98;64.11;100331.59;5096597;27;20268;-41
2023/03/23 08:58:05;;;;;;;13.93;2.50;;;;;;;15.28;63.70;100329.44;5102355;27;20485;-43
2023/03/23 09:00:32;;;;;;;15.05;2.53;;;;;;;15.50;63.35;100324.72;5098539;28;20039;-39
2023/03/23 09:02:58;;;;;;;11.18;2.35;;;;;;;16.01;61.48;100312.50;5101938;27;20114;-41
2023/03/23 09:05:26;;;;;;;14.63;2.70;;;;;;;15.86;62.22;100310.16;5098394;28;20605;-42
2023/03/23 09:07:53;;;;;;;12.88;2.58;;;;;;;15.94;60.90;100322.25;5103189;28;20028;-45
2023/03/23 09:10:19;;;;;;;16.77;2.63;;;;;;;15.41;61.29;100330.97;5103926;28;20084;-41
2023/03/23 09:12:46;;;;;;;17.85;2.47;;;;;;;15.51;60.73;100316.81;5105904;27;20361;-40
2023/03/23 09:15:15;;;;;;;13.48;2.42;;;;;;;15.31;62.37;100322.34;5097603;27;20090;-42
2023/03/23 09:17:43;;;;;;;11.23;2.35;;;;;;;15.54;61.17;100311.56;5101657;27;20035;-43
2023/03/23 09:20:13;;;;;;;14.40;2.58;;;;;;;15.83;60.64;100314.56;5102631;28;20038;-39
2023/03/23 09:22:44;;;;;;;18.33;2.75;;;;;;;15.52;61.86;100326.47;5099234;27;20065;-45
2023/03/23 09:25:11;;;;;;;12.65;2.70;;;;;;;16.05;60.28;100308.91;5098326;27;20065;-39
2023/03/23 09:27:39;;;;;;;14.77;2.90;;;;;;;15.29;61.08;100326.78;5101994;28;20031;-42
2023/03/23 09:30:10;;;;;;;11.27;2.38;;;;;;;15.24;61.57;100326.00;5101981;27;20038;-45
2023/03/23 09:32:37;;;;;;;13.63;2.50;;;;;;;15.91;60.17;100322.34;5099093;28;20020;-40
2023/03/23 09:35:08;;;;;;;12.07;2.60;;;;;;;16.13;58.92;100328.06;5099256;28;20031;-45
2023/03/23 09:37:35;;;;;;;14.07;2.95;;;;;;;15.73;59.81;100331.41;5097926;27;20036;-44
2023/03/23 09:40:05;;;;;;;17.65;3.03;;;;;;;15.97;59.80;100332.75;5102248;28;20028;-41
2023/03/23 09:42:53;;;;;;;15.80;2.75;;;;;;;15.95;59.80;100336.28;5098110;27;20035;-41
2023/03/23 09:45:29;;;;;;;14.43;2.63;;;;;;;15.64;59.72;100334.16;5098033;28;20032;-42
2023/03/23 09:47:54;;;;;;;14.80;2.88;;;;;;;16.22;58.23;100341.91;5101302;28;20031;-44
2023/03/23 09:50:31;;;;;;;17.45;2.85;;;;;;;15.66;59.53;100356.03;5083085;28;20043;-42
2023/03/23 09:53:02;;;;;;;16.55;3.42;;;;;;;15.95;59.42;100350.28;5088759;28;20044;-41
2023/03/23 09:55:31;;;;;;;19.65;3.13;;;;;;;15.79;60.01;100368.09;5086853;28;20032;-39
2023/03/23 09:58:16;;;;;;;17.10;2.58;;;;;;;16.36;58.72;100362.72;5086120;28;20036;-45
2023/03/23 10:00:48;;;;;;;16.85;2.70;;;;;;;16.18;57.69;100349.88;5082473;28;20032;-43
2023/03/23 10:03:17;;;;;;;12.48;2.67;;;;;;;16.55;56.79;100350.06;5084685;28;20123;-42
2023/03/23 10:05:47;;;;;;;13.35;2.47;;;;;;;16.49;57.14;100363.34;5083574;28;20122;-41
2023/03/23 10:08:20;;;;;;;20.88;3.40;;;;;;;15.93;57.90;100364.34;5079361;28;20525;-43
2023/03/23 10:11:09;;;;;;;14.75;2.92;;;;;;;16.47;56.63;100370.41;5081109;28;20120;-41
2023/03/23 10:13:37;;;;;;;15.32;3.17;;;;;;;16.11;58.26;100367.53;5034722;28;20028;-41
2023/03/23 10:16:08;;;;;;;17.63;2.95;;;;;;;16.45;58.49;100367.81;5083384;28;20047;-42
2023/03/23 10:18:41;;;;;;;15.10;3.30;;;;;;;16.59;57.66;100373.69;5078632;28;20046;-43
2023/03/23 10:21:14;;;;;;;15.65;3.33;;;;;;;16.57;56.08;100367.59;5081232;28;20032;-42
2023/03/23 10:23:48;;;;;;;19.80;3.30;;;;;;;16.06;57.39;100373.78;5077634;28;20512;-44
2023/03/23 10:26:22;;;;;;;16.40;3.20;;;;;;;16.49;55.97;100365.97;5078716;28;20040;-42
2023/03/23 10:29:13;;;;;;;19.00;3.17;;;;;;;16.57;55.67;100359.69;5082506;28;20033;-44
2023/03/23 10:31:59;;;;;;;21.73;3.90;;;;;;;16.13;57.63;100360.50;5078261;28;20036;-42
2023/03/23 10:34:39;;;;;;;23.75;3.40;;;;;;;16.27;57.16;100368.16;5080299;28;20032;-43
2023/03/23 10:37:12;;;;;;;16.88;3.20;;;;;;;17.30;54.14;100357.31;5084355;28;20405;-41
2023/03/23 10:39:54;;;;;;;20.00;3.45;;;;;;;16.28;55.10;100371.66;5080716;28;20301;-40
2023/03/23 10:42:39;;;;;;;19.13;3.10;;;;;;;16.11;56.25;100371.91;5080622;28;20024;-41
2023/03/23 10:45:21;;;;;;;16.63;3.13;;;;;;;16.39;56.49;100381.09;5085456;28;20074;-43
2023/03/23 10:47:52;;;;;;;15.45;3.00;;;;;;;16.80;54.64;100393.50;5081388;28;20036;-43
2023/03/23 10:50:23;;;;;;;21.50;3.35;;;;;;;17.11;54.65;100379.69;5081385;28;20028;-43
2023/03/23 10:52:53;;;;;;;22.45;3.28;;;;;;;16.35;55.87;100383.78;5084774;28;20056;-43
2023/03/23 10:55:20;;;;;;;17.17;3.17;;;;;;;17.20;54.21;100377.72;5081028;28;20440;-41
2023/03/23 10:58:10;;;;;;;15.77;3.30;;;;;;;17.21;53.94;100368.91;5105058;28;20512;-41
2023/03/23 11:00:46;;;;;;;19.90;3.42;;;;;;;16.87;54.32;100349.47;5099575;28;20031;-43
2023/03/23 11:03:15;;;;;;;20.48;3.08;;;;;;;16.95;54.33;100371.25;5103610;28;20031;-42
2023/03/23 11:05:44;;;;;;;22.45;3.17;;;;;;;17.51;53.12;100369.13;5106935;22;20098;-39
2023/03/23 11:08:15;;;;;;;17.58;3.17;;;;;;;18.12;50.96;100368.56;5042112;28;20025;-41
2023/03/23 11:10:49;;;;;;;18.23;3.08;;;;;;;17.61;51.31;100366.31;5049632;28;20032;-40
2023/03/23 11:13:17;;;;;;;15.93;3.40;;;;;;;17.13;51.57;100362.97;5062440;28;20062;-41
2023/03/23 11:15:45;;;;;;;24.95;3.92;;;;;;;17.30;51.32;100342.38;5065541;28;20040;-40
2023/03/23 11:18:13;;;;;;;17.00;2.92;;;;;;;17.64;51.51;100370.63;5033358;28;20131;-39
2023/03/23 11:20:42;;;;;;;18.13;3.10;;;;;;;17.49;51.67;100385.00;5062152;28;20059;-40
2023/03/23 11:23:20;;;;;;;17.40;3.17;;;;;;;17.49;51.46;100381.50;5063501;28;20051;-43
2023/03/23 11:26:16;;;;;;;14.00;3.08;;;;;;;17.16;51.67;100365.53;5060467;28;20135;-36
2023/03/23 11:29:10;;;;;;;15.45;3.13;;;;;;;17.17;51.46;100358.50;5060304;28;20120;-39
2023/03/23 11:31:45;;;;;;;17.75;3.08;;;;;;;17.04;51.87;100360.53;5048745;28;20047;-38